sensor_id;sensor_type;location;lat;lon;timestamp;P1;durP1;ratioP1;P2;durP2;ratioP2
64885;SDS011;51514;52.206;5.114;2023-02-18T00:00:06;47.40;;;17.27;;
64885;SDS011;51514;52.206;5.114;2023-02-18T00:02:35;39.58;;;15.73;;
64885;SDS011;51514;52.206;5.114;2023-02-18T00:05:01;45.10;;;18.33;;
64885;SDS011;51514;52.206;5.114;2023-02-18T00:07:26;38.58;;;16.45;;
64885;SDS011;51514;52.206;5.114;2023-02-18T00:09:52;52.80;;;16.10;;
64885;SDS011;51514;52.206;5.114;2023-02-18T00:12:17;36.35;;;16.40;;
64885;SDS011;51514;52.206;5.114;2023-02-18T00:14:42;43.53;;;16.50;;
64885;SDS011;51514;52.206;5.114;2023-02-18T00:17:08;35.92;;;16.10;;
64885;SDS011;51514;52.206;5.114;2023-02-18T00:19:33;53.22;;;17.10;;
64885;SDS011;51514;52.206;5.114;2023-02-18T00:21:58;44.10;;;16.92;;
64885;SDS011;51514;52.206;5.114;2023-02-18T00:24:23;50.40;;;19.00;;
64885;SDS011;51514;52.206;5.114;2023-02-18T00:26:50;45.75;;;19.38;;
64885;SDS011;51514;52.206;5.114;2023-02-18T00:29:16;55.10;;;22.02;;
64885;SDS011;51514;52.206;5.114;2023-02-18T00:31:42;52.22;;;22.95;;
64885;SDS011;51514;52.206;5.114;2023-02-18T00:34:08;51.10;;;23.45;;
64885;SDS011;51514;52.206;5.114;2023-02-18T00:36:34;70.00;;;27.95;;
64885;SDS011;51514;52.206;5.114;2023-02-18T00:39:01;66.72;;;27.05;;
64885;SDS011;51514;52.206;5.114;2023-02-18T00:41:33;67.85;;;29.55;;
64885;SDS011;51514;52.206;5.114;2023-02-18T00:43:59;66.38;;;28.85;;
64885;SDS011;51514;52.206;5.114;2023-02-18T00:46:25;68.80;;;29.95;;
64885;SDS011;51514;52.206;5.114;2023-02-18T00:48:51;62.72;;;30.33;;
64885;SDS011;51514;52.206;5.114;2023-02-18T00:51:17;61.75;;;30.10;;
64885;SDS011;51514;52.206;5.114;2023-02-18T00:53:43;65.25;;;29.52;;
64885;SDS011;51514;52.206;5.114;2023-02-18T00:56:08;65.55;;;29.60;;
64885;SDS011;51514;52.206;5.114;2023-02-18T00:58:34;52.13;;;29.10;;
64885;SDS011;51514;52.206;5.114;2023-02-18T01:01:00;56.05;;;28.48;;
64885;SDS011;51514;52.206;5.114;2023-02-18T01:03:26;72.32;;;32.28;;
64885;SDS011;51514;52.206;5.114;2023-02-18T01:05:51;73.28;;;30.23;;
64885;SDS011;51514;52.206;5.114;2023-02-18T01:08:17;71.68;;;33.55;;
64885;SDS011;51514;52.206;5.114;2023-02-18T01:10:45;70.95;;;33.40;;
64885;SDS011;51514;52.206;5.114;2023-02-18T01:13:13;74.43;;;33.60;;
64885;SDS011;51514;52.206;5.114;2023-02-18T01:15:40;78.70;;;32.45;;
64885;SDS011;51514;52.206;5.114;2023-02-18T01:18:06;82.80;;;34.65;;
64885;SDS011;51514;52.206;5.114;2023-02-18T01:20:33;78.53;;;32.92;;
64885;SDS011;51514;52.206;5.114;2023-02-18T01:23:00;69.80;;;32.75;;
64885;SDS011;51514;52.206;5.114;2023-02-18T01:25:25;81.32;;;34.88;;
64885;SDS011;51514;52.206;5.114;2023-02-18T01:27:51;82.22;;;34.38;;
64885;SDS011;51514;52.206;5.114;2023-02-18T01:30:16;79.97;;;36.42;;
64885;SDS011;51514;52.206;5.114;2023-02-18T01:32:42;92.82;;;37.97;;
64885;SDS011;51514;52.206;5.114;2023-02-18T01:35:10;100.07;;;40.28;;
64885;SDS011;51514;52.206;5.114;2023-02-18T01:37:37;99.30;;;40.58;;
64885;SDS011;51514;52.206;5.114;2023-02-18T01:40:03;111.25;;;43.13;;
64885;SDS011;51514;52.206;5.114;2023-02-18T01:42:29;103.18;;;41.60;;
64885;SDS011;51514;52.206;5.114;2023-02-18T01:45:28;96.85;;;39.72;;
64885;SDS011;51514;52.206;5.114;2023-02-18T01:48:02;105.47;;;42.15;;
64885;SDS011;51514;52.206;5.114;2023-02-18T01:50:32;108.55;;;41.72;;
64885;SDS011;51514;52.206;5.114;2023-02-18T01:53:00;113.97;;;42.85;;
64885;SDS011;51514;52.206;5.114;2023-02-18T01:55:26;110.43;;;43.17;;
64885;SDS011;51514;52.206;5.114;2023-02-18T01:57:52;110.75;;;42.20;;
64885;SDS011;51514;52.206;5.114;2023-02-18T02:00:18;114.07;;;47.05;;
64885;SDS011;51514;52.206;5.114;2023-02-18T02:02:49;124.40;;;44.22;;
64885;SDS011;51514;52.206;5.114;2023-02-18T02:05:16;123.50;;;44.70;;
64885;SDS011;51514;52.206;5.114;2023-02-18T02:07:42;112.05;;;45.92;;
64885;SDS011;51514;52.206;5.114;2023-02-18T02:10:10;108.72;;;44.88;;
64885;SDS011;51514;52.206;5.114;2023-02-18T02:17:50;121.90;;;44.63;;
64885;SDS011;51514;52.206;5.114;2023-02-18T02:42:42;128.02;;;46.38;;
64885;SDS011;51514;52.206;5.114;2023-02-18T02:47:47;134.85;;;46.58;;
64885;SDS011;51514;52.206;5.114;2023-02-18T02:50:24;104.97;;;42.83;;
64885;SDS011;51514;52.206;5.114;2023-02-18T02:53:03;121.13;;;43.85;;
64885;SDS011;51514;52.206;5.114;2023-02-18T02:55:37;112.65;;;43.72;;
64885;SDS011;51514;52.206;5.114;2023-02-18T02:58:02;108.70;;;41.63;;
64885;SDS011;51514;52.206;5.114;2023-02-18T03:00:40;113.22;;;43.33;;
64885;SDS011;51514;52.206;5.114;2023-02-18T03:11:35;125.03;;;44.95;;
64885;SDS011;51514;52.206;5.114;2023-02-18T03:16:57;119.95;;;44.55;;
64885;SDS011;51514;52.206;5.114;2023-02-18T03:19:28;111.38;;;43.22;;
64885;SDS011;51514;52.206;5.114;2023-02-18T03:22:00;114.85;;;46.42;;
64885;SDS011;51514;52.206;5.114;2023-02-18T03:24:37;111.35;;;43.78;;
64885;SDS011;51514;52.206;5.114;2023-02-18T03:27:39;115.30;;;43.83;;
64885;SDS011;51514;52.206;5.114;2023-02-18T03:30:11;101.80;;;41.22;;
64885;SDS011;51514;52.206;5.114;2023-02-18T03:32:41;109.05;;;44.40;;
64885;SDS011;51514;52.206;5.114;2023-02-18T03:35:12;98.43;;;41.50;;
64885;SDS011;51514;52.206;5.114;2023-02-18T03:37:44;105.78;;;41.75;;
64885;SDS011;51514;52.206;5.114;2023-02-18T03:40:25;106.72;;;44.75;;
64885;SDS011;51514;52.206;5.114;2023-02-18T03:42:52;98.57;;;41.25;;
64885;SDS011;51514;52.206;5.114;2023-02-18T03:45:18;95.25;;;40.75;;
64885;SDS011;51514;52.206;5.114;2023-02-18T03:47:43;102.57;;;41.22;;
64885;SDS011;51514;52.206;5.114;2023-02-18T03:50:09;81.47;;;35.95;;
64885;SDS011;51514;52.206;5.114;2023-02-18T03:52:34;79.78;;;34.22;;
64885;SDS011;51514;52.206;5.114;2023-02-18T03:55:01;67.93;;;30.25;;
64885;SDS011;51514;52.206;5.114;2023-02-18T03:57:28;54.03;;;26.70;;
64885;SDS011;51514;52.206;5.114;2023-02-18T03:59:53;48.65;;;24.83;;
64885;SDS011;51514;52.206;5.114;2023-02-18T04:02:18;44.25;;;24.02;;
64885;SDS011;51514;52.206;5.114;2023-02-18T04:04:44;38.38;;;19.98;;
64885;SDS011;51514;52.206;5.114;2023-02-18T04:07:09;35.08;;;18.98;;
64885;SDS011;51514;52.206;5.114;2023-02-18T04:09:34;29.98;;;17.90;;
64885;SDS011;51514;52.206;5.114;2023-02-18T04:12:00;27.52;;;16.20;;
64885;SDS011;51514;52.206;5.114;2023-02-18T04:14:25;27.52;;;14.18;;
64885;SDS011;51514;52.206;5.114;2023-02-18T04:16:50;24.90;;;14.85;;
64885;SDS011;51514;52.206;5.114;2023-02-18T04:19:16;28.10;;;15.40;;
64885;SDS011;51514;52.206;5.114;2023-02-18T04:21:41;23.98;;;14.18;;
64885;SDS011;51514;52.206;5.114;2023-02-18T04:24:06;21.75;;;14.07;;
64885;SDS011;51514;52.206;5.114;2023-02-18T04:26:32;23.48;;;15.18;;
64885;SDS011;51514;52.206;5.114;2023-02-18T04:28:57;25.42;;;15.30;;
64885;SDS011;51514;52.206;5.114;2023-02-18T04:31:22;23.48;;;14.63;;
64885;SDS011;51514;52.206;5.114;2023-02-18T04:33:48;25.30;;;14.80;;
64885;SDS011;51514;52.206;5.114;2023-02-18T04:36:13;21.73;;;14.43;;
64885;SDS011;51514;52.206;5.114;2023-02-18T04:38:38;22.75;;;14.50;;
64885;SDS011;51514;52.206;5.114;2023-02-18T04:41:06;25.73;;;15.20;;
64885;SDS011;51514;52.206;5.114;2023-02-18T04:43:31;22.55;;;14.32;;
64885;SDS011;51514;52.206;5.114;2023-02-18T04:45:56;21.65;;;14.95;;
64885;SDS011;51514;52.206;5.114;2023-02-18T04:48:22;22.08;;;13.73;;
64885;SDS011;51514;52.206;5.114;2023-02-18T04:50:47;25.15;;;14.43;;
64885;SDS011;51514;52.206;5.114;2023-02-18T04:53:12;21.77;;;13.55;;
64885;SDS011;51514;52.206;5.114;2023-02-18T04:55:38;25.90;;;14.57;;
64885;SDS011;51514;52.206;5.114;2023-02-18T04:58:03;26.92;;;14.80;;
64885;SDS011;51514;52.206;5.114;2023-02-18T05:00:28;24.08;;;14.98;;
64885;SDS011;51514;52.206;5.114;2023-02-18T05:02:54;25.27;;;14.82;;
64885;SDS011;51514;52.206;5.114;2023-02-18T05:05:19;26.55;;;15.45;;
64885;SDS011;51514;52.206;5.114;2023-02-18T05:07:44;29.52;;;16.42;;
64885;SDS011;51514;52.206;5.114;2023-02-18T05:10:10;31.65;;;17.13;;
64885;SDS011;51514;52.206;5.114;2023-02-18T05:12:40;34.75;;;17.85;;
64885;SDS011;51514;52.206;5.114;2023-02-18T05:15:05;27.85;;;16.48;;
64885;SDS011;51514;52.206;5.114;2023-02-18T05:17:31;33.15;;;17.63;;
64885;SDS011;51514;52.206;5.114;2023-02-18T05:19:56;31.02;;;17.23;;
64885;SDS011;51514;52.206;5.114;2023-02-18T05:22:22;30.83;;;17.67;;
64885;SDS011;51514;52.206;5.114;2023-02-18T05:24:47;26.98;;;16.98;;
64885;SDS011;51514;52.206;5.114;2023-02-18T05:27:12;26.52;;;16.60;;
64885;SDS011;51514;52.206;5.114;2023-02-18T05:29:38;32.13;;;17.48;;
64885;SDS011;51514;52.206;5.114;2023-02-18T05:32:03;32.05;;;17.92;;
64885;SDS011;51514;52.206;5.114;2023-02-18T05:34:29;30.95;;;18.70;;
64885;SDS011;51514;52.206;5.114;2023-02-18T05:36:54;32.83;;;17.98;;
64885;SDS011;51514;52.206;5.114;2023-02-18T05:39:19;34.75;;;19.73;;
64885;SDS011;51514;52.206;5.114;2023-02-18T05:41:44;37.40;;;20.55;;
64885;SDS011;51514;52.206;5.114;2023-02-18T05:44:10;40.28;;;20.35;;
64885;SDS011;51514;52.206;5.114;2023-02-18T05:46:54;41.15;;;21.25;;
64885;SDS011;51514;52.206;5.114;2023-02-18T05:49:19;36.08;;;21.42;;
64885;SDS011;51514;52.206;5.114;2023-02-18T05:51:44;39.50;;;20.33;;
64885;SDS011;51514;52.206;5.114;2023-02-18T05:54:10;38.38;;;20.77;;
64885;SDS011;51514;52.206;5.114;2023-02-18T05:56:35;36.38;;;20.13;;
64885;SDS011;51514;52.206;5.114;2023-02-18T05:59:00;31.63;;;18.70;;
64885;SDS011;51514;52.206;5.114;2023-02-18T06:01:25;31.80;;;18.73;;
64885;SDS011;51514;52.206;5.114;2023-02-18T06:03:51;35.28;;;20.67;;
64885;SDS011;51514;52.206;5.114;2023-02-18T06:06:16;32.13;;;18.05;;
64885;SDS011;51514;52.206;5.114;2023-02-18T06:08:41;32.33;;;18.88;;
64885;SDS011;51514;52.206;5.114;2023-02-18T06:11:07;34.45;;;17.60;;
64885;SDS011;51514;52.206;5.114;2023-02-18T06:13:32;27.20;;;17.85;;
64885;SDS011;51514;52.206;5.114;2023-02-18T06:15:58;32.55;;;17.75;;
64885;SDS011;51514;52.206;5.114;2023-02-18T06:18:23;31.10;;;18.13;;
64885;SDS011;51514;52.206;5.114;2023-02-18T06:20:49;27.65;;;16.33;;
64885;SDS011;51514;52.206;5.114;2023-02-18T06:23:14;29.17;;;17.77;;
64885;SDS011;51514;52.206;5.114;2023-02-18T06:25:40;26.00;;;17.90;;
64885;SDS011;51514;52.206;5.114;2023-02-18T06:28:06;28.00;;;15.82;;
64885;SDS011;51514;52.206;5.114;2023-02-18T06:30:31;25.52;;;16.05;;
64885;SDS011;51514;52.206;5.114;2023-02-18T06:32:57;31.70;;;14.80;;
64885;SDS011;51514;52.206;5.114;2023-02-18T06:35:22;24.60;;;15.43;;
64885;SDS011;51514;52.206;5.114;2023-02-18T06:37:48;27.58;;;16.27;;
64885;SDS011;51514;52.206;5.114;2023-02-18T06:40:13;28.30;;;14.75;;
64885;SDS011;51514;52.206;5.114;2023-02-18T06:42:38;25.42;;;15.63;;
64885;SDS011;51514;52.206;5.114;2023-02-18T06:45:04;28.80;;;14.88;;
64885;SDS011;51514;52.206;5.114;2023-02-18T06:47:30;28.05;;;15.27;;
64885;SDS011;51514;52.206;5.114;2023-02-18T06:49:56;28.60;;;15.90;;
64885;SDS011;51514;52.206;5.114;2023-02-18T06:52:22;28.27;;;16.35;;
64885;SDS011;51514;52.206;5.114;2023-02-18T06:54:47;31.77;;;16.45;;
64885;SDS011;51514;52.206;5.114;2023-02-18T06:57:12;30.35;;;16.65;;
64885;SDS011;51514;52.206;5.114;2023-02-18T06:59:38;30.90;;;16.67;;
64885;SDS011;51514;52.206;5.114;2023-02-18T07:02:03;31.45;;;16.60;;
64885;SDS011;51514;52.206;5.114;2023-02-18T07:04:28;29.73;;;15.18;;
64885;SDS011;51514;52.206;5.114;2023-02-18T07:06:54;28.73;;;15.05;;
64885;SDS011;51514;52.206;5.114;2023-02-18T07:09:19;28.58;;;14.07;;
64885;SDS011;51514;52.206;5.114;2023-02-18T07:11:44;31.30;;;14.73;;
64885;SDS011;51514;52.206;5.114;2023-02-18T07:14:10;25.77;;;12.88;;
64885;SDS011;51514;52.206;5.114;2023-02-18T07:16:35;30.63;;;13.90;;
64885;SDS011;51514;52.206;5.114;2023-02-18T07:19:00;29.30;;;13.05;;
64885;SDS011;51514;52.206;5.114;2023-02-18T07:21:26;33.13;;;13.85;;
64885;SDS011;51514;52.206;5.114;2023-02-18T07:23:51;28.25;;;13.95;;
64885;SDS011;51514;52.206;5.114;2023-02-18T07:26:16;29.70;;;13.95;;
64885;SDS011;51514;52.206;5.114;2023-02-18T07:28:43;26.65;;;13.27;;
64885;SDS011;51514;52.206;5.114;2023-02-18T07:31:08;34.28;;;15.25;;
64885;SDS011;51514;52.206;5.114;2023-02-18T07:33:33;27.33;;;12.85;;
64885;SDS011;51514;52.206;5.114;2023-02-18T07:35:59;24.17;;;10.88;;
64885;SDS011;51514;52.206;5.114;2023-02-18T07:38:27;26.48;;;13.82;;
64885;SDS011;51514;52.206;5.114;2023-02-18T07:40:53;19.92;;;9.82;;
64885;SDS011;51514;52.206;5.114;2023-02-18T07:43:19;25.40;;;10.15;;
64885;SDS011;51514;52.206;5.114;2023-02-18T07:45:44;26.33;;;8.93;;
64885;SDS011;51514;52.206;5.114;2023-02-18T07:48:10;22.40;;;8.43;;
64885;SDS011;51514;52.206;5.114;2023-02-18T07:50:39;29.65;;;8.55;;
64885;SDS011;51514;52.206;5.114;2023-02-18T07:53:06;23.83;;;7.85;;
64885;SDS011;51514;52.206;5.114;2023-02-18T07:55:32;20.60;;;8.18;;
64885;SDS011;51514;52.206;5.114;2023-02-18T07:58:20;24.58;;;6.93;;
64885;SDS011;51514;52.206;5.114;2023-02-18T08:00:47;28.27;;;7.90;;
64885;SDS011;51514;52.206;5.114;2023-02-18T08:03:14;23.58;;;6.95;;
64885;SDS011;51514;52.206;5.114;2023-02-18T08:05:40;22.70;;;5.55;;
64885;SDS011;51514;52.206;5.114;2023-02-18T08:08:05;23.67;;;5.93;;
64885;SDS011;51514;52.206;5.114;2023-02-18T08:10:31;25.70;;;6.18;;
64885;SDS011;51514;52.206;5.114;2023-02-18T08:12:56;25.90;;;6.63;;
64885;SDS011;51514;52.206;5.114;2023-02-18T08:15:21;23.23;;;5.78;;
64885;SDS011;51514;52.206;5.114;2023-02-18T08:17:47;22.67;;;5.47;;
64885;SDS011;51514;52.206;5.114;2023-02-18T08:20:12;28.13;;;6.30;;
64885;SDS011;51514;52.206;5.114;2023-02-18T08:22:37;23.35;;;4.50;;
64885;SDS011;51514;52.206;5.114;2023-02-18T08:25:03;27.23;;;5.93;;
64885;SDS011;51514;52.206;5.114;2023-02-18T08:27:29;21.08;;;5.72;;
64885;SDS011;51514;52.206;5.114;2023-02-18T08:29:54;24.48;;;5.13;;
64885;SDS011;51514;52.206;5.114;2023-02-18T08:32:20;28.88;;;5.78;;
64885;SDS011;51514;52.206;5.114;2023-02-18T08:34:45;28.45;;;5.55;;
64885;SDS011;51514;52.206;5.114;2023-02-18T08:37:10;25.25;;;6.60;;
64885;SDS011;51514;52.206;5.114;2023-02-18T08:39:37;28.88;;;5.82;;
64885;SDS011;51514;52.206;5.114;2023-02-18T08:42:03;18.67;;;5.35;;
64885;SDS011;51514;52.206;5.114;2023-02-18T08:44:28;22.55;;;6.57;;
64885;SDS011;51514;52.206;5.114;2023-02-18T08:46:54;21.65;;;6.15;;
64885;SDS011;51514;52.206;5.114;2023-02-18T08:49:19;24.55;;;5.72;;
64885;SDS011;51514;52.206;5.114;2023-02-18T08:51:45;17.17;;;5.53;;
64885;SDS011;51514;52.206;5.114;2023-02-18T08:54:11;28.33;;;5.35;;
64885;SDS011;51514;52.206;5.114;2023-02-18T08:56:36;25.17;;;6.03;;
64885;SDS011;51514;52.206;5.114;2023-02-18T08:59:03;24.77;;;5.32;;
64885;SDS011;51514;52.206;5.114;2023-02-18T09:01:28;22.42;;;6.18;;
64885;SDS011;51514;52.206;5.114;2023-02-18T09:03:54;18.95;;;5.28;;
64885;SDS011;51514;52.206;5.114;2023-02-18T09:06:19;21.08;;;4.55;;
64885;SDS011;51514;52.206;5.114;2023-02-18T09:08:44;24.88;;;5.63;;
64885;SDS011;51514;52.206;5.114;2023-02-18T09:11:10;25.10;;;6.30;;
64885;SDS011;51514;52.206;5.114;2023-02-18T09:13:35;18.88;;;5.18;;
64885;SDS011;51514;52.206;5.114;2023-02-18T09:16:05;26.30;;;5.20;;
64885;SDS011;51514;52.206;5.114;2023-02-18T09:18:32;21.05;;;5.38;;
64885;SDS011;51514;52.206;5.114;2023-02-18T09:21:02;31.38;;;5.57;;
64885;SDS011;51514;52.206;5.114;2023-02-18T09:23:29;22.20;;;5.32;;
64885;SDS011;51514;52.206;5.114;2023-02-18T09:25:55;24.02;;;5.22;;
64885;SDS011;51514;52.206;5.114;2023-02-18T09:28:21;16.90;;;5.05;;
64885;SDS011;51514;52.206;5.114;2023-02-18T09:30:47;25.27;;;5.65;;
64885;SDS011;51514;52.206;5.114;2023-02-18T09:33:12;19.70;;;5.05;;
64885;SDS011;51514;52.206;5.114;2023-02-18T09:35:42;20.70;;;5.03;;
64885;SDS011;51514;52.206;5.114;2023-02-18T09:38:09;19.58;;;4.20;;
64885;SDS011;51514;52.206;5.114;2023-02-18T09:40:36;22.83;;;6.05;;
64885;SDS011;51514;52.206;5.114;2023-02-18T09:43:06;18.85;;;5.43;;
64885;SDS011;51514;52.206;5.114;2023-02-18T09:45:31;19.52;;;4.13;;
64885;SDS011;51514;52.206;5.114;2023-02-18T09:47:57;26.52;;;6.57;;
64885;SDS011;51514;52.206;5.114;2023-02-18T09:50:26;18.92;;;5.30;;
64885;SDS011;51514;52.206;5.114;2023-02-18T09:52:54;20.83;;;4.40;;
64885;SDS011;51514;52.206;5.114;2023-02-18T09:55:29;23.95;;;5.25;;
64885;SDS011;51514;52.206;5.114;2023-02-18T09:58:01;21.98;;;5.80;;
64885;SDS011;51514;52.206;5.114;2023-02-18T10:00:32;19.20;;;4.78;;
64885;SDS011;51514;52.206;5.114;2023-02-18T10:03:01;19.52;;;4.40;;
64885;SDS011;51514;52.206;5.114;2023-02-18T10:05:30;25.77;;;6.40;;
64885;SDS011;51514;52.206;5.114;2023-02-18T10:08:02;19.33;;;5.55;;
64885;SDS011;51514;52.206;5.114;2023-02-18T10:10:44;14.38;;;4.00;;
64885;SDS011;51514;52.206;5.114;2023-02-18T10:13:15;20.65;;;4.72;;
64885;SDS011;51514;52.206;5.114;2023-02-18T10:15:43;22.10;;;5.85;;
64885;SDS011;51514;52.206;5.114;2023-02-18T10:18:29;20.50;;;5.35;;
64885;SDS011;51514;52.206;5.114;2023-02-18T10:21:19;19.83;;;4.40;;
64885;SDS011;51514;52.206;5.114;2023-02-18T10:24:03;18.40;;;4.85;;
64885;SDS011;51514;52.206;5.114;2023-02-18T10:26:32;15.55;;;3.97;;
64885;SDS011;51514;52.206;5.114;2023-02-18T10:29:01;15.32;;;4.18;;
64885;SDS011;51514;52.206;5.114;2023-02-18T10:31:36;15.65;;;4.65;;
64885;SDS011;51514;52.206;5.114;2023-02-18T10:37:03;20.05;;;4.43;;
64885;SDS011;51514;52.206;5.114;2023-02-18T10:45:25;18.92;;;4.70;;
64885;SDS011;51514;52.206;5.114;2023-02-18T10:48:04;15.32;;;4.80;;
64885;SDS011;51514;52.206;5.114;2023-02-18T10:50:46;17.47;;;5.00;;
64885;SDS011;51514;52.206;5.114;2023-02-18T10:55:46;21.70;;;4.65;;
64885;SDS011;51514;52.206;5.114;2023-02-18T11:00:59;20.83;;;5.15;;
64885;SDS011;51514;52.206;5.114;2023-02-18T11:03:45;18.67;;;4.13;;
64885;SDS011;51514;52.206;5.114;2023-02-18T11:06:15;15.35;;;4.00;;
64885;SDS011;51514;52.206;5.114;2023-02-18T11:09:04;20.25;;;4.38;;
64885;SDS011;51514;52.206;5.114;2023-02-18T11:11:32;17.83;;;4.53;;
64885;SDS011;51514;52.206;5.114;2023-02-18T11:14:02;16.75;;;4.00;;
64885;SDS011;51514;52.206;5.114;2023-02-18T11:16:39;14.68;;;4.20;;
64885;SDS011;51514;52.206;5.114;2023-02-18T11:24:38;13.30;;;4.13;;
64885;SDS011;51514;52.206;5.114;2023-02-18T11:27:08;15.63;;;3.90;;
64885;SDS011;51514;52.206;5.114;2023-02-18T11:29:35;13.95;;;4.22;;
64885;SDS011;51514;52.206;5.114;2023-02-18T11:32:01;17.75;;;3.63;;
64885;SDS011;51514;52.206;5.114;2023-02-18T11:34:27;14.25;;;4.25;;
64885;SDS011;51514;52.206;5.114;2023-02-18T11:36:55;16.42;;;4.00;;
64885;SDS011;51514;52.206;5.114;2023-02-18T11:39:35;20.90;;;4.03;;
64885;SDS011;51514;52.206;5.114;2023-02-18T11:42:07;13.38;;;3.75;;
64885;SDS011;51514;52.206;5.114;2023-02-18T11:44:41;16.45;;;3.45;;
64885;SDS011;51514;52.206;5.114;2023-02-18T11:49:57;13.93;;;3.80;;
64885;SDS011;51514;52.206;5.114;2023-02-18T11:52:38;19.70;;;4.53;;
64885;SDS011;51514;52.206;5.114;2023-02-18T11:55:07;15.30;;;3.60;;
64885;SDS011;51514;52.206;5.114;2023-02-18T11:57:42;16.88;;;3.80;;
64885;SDS011;51514;52.206;5.114;2023-02-18T12:00:19;12.85;;;3.60;;
64885;SDS011;51514;52.206;5.114;2023-02-18T12:02:49;11.68;;;3.83;;
64885;SDS011;51514;52.206;5.114;2023-02-18T12:05:22;13.40;;;3.70;;
64885;SDS011;51514;52.206;5.114;2023-02-18T12:07:50;11.82;;;3.83;;
64885;SDS011;51514;52.206;5.114;2023-02-18T12:10:18;12.65;;;3.75;;
64885;SDS011;51514;52.206;5.114;2023-02-18T12:15:45;13.75;;;3.88;;
64885;SDS011;51514;52.206;5.114;2023-02-18T12:24:19;12.57;;;3.13;;
64885;SDS011;51514;52.206;5.114;2023-02-18T12:32:44;14.15;;;3.65;;
64885;SDS011;51514;52.206;5.114;2023-02-18T12:35:56;10.45;;;3.00;;
64885;SDS011;51514;52.206;5.114;2023-02-18T12:41:18;11.05;;;3.03;;
64885;SDS011;51514;52.206;5.114;2023-02-18T12:44:09;11.40;;;2.90;;
64885;SDS011;51514;52.206;5.114;2023-02-18T12:46:47;7.03;;;2.70;;
64885;SDS011;51514;52.206;5.114;2023-02-18T12:54:51;16.92;;;3.50;;
64885;SDS011;51514;52.206;5.114;2023-02-18T12:57:51;7.00;;;3.20;;
64885;SDS011;51514;52.206;5.114;2023-02-18T13:03:30;15.13;;;3.08;;
64885;SDS011;51514;52.206;5.114;2023-02-18T13:06:16;12.52;;;3.33;;
64885;SDS011;51514;52.206;5.114;2023-02-18T13:09:44;14.55;;;3.85;;
64885;SDS011;51514;52.206;5.114;2023-02-18T13:14:43;11.27;;;3.03;;
64885;SDS011;51514;52.206;5.114;2023-02-18T13:17:14;10.13;;;2.97;;
64885;SDS011;51514;52.206;5.114;2023-02-18T13:22:19;10.18;;;2.90;;
64885;SDS011;51514;52.206;5.114;2023-02-18T13:24:48;9.90;;;3.57;;
64885;SDS011;51514;52.206;5.114;2023-02-18T13:27:30;12.48;;;3.47;;
64885;SDS011;51514;52.206;5.114;2023-02-18T13:30:12;12.73;;;3.22;;
64885;SDS011;51514;52.206;5.114;2023-02-18T13:40:35;14.48;;;3.33;;
64885;SDS011;51514;52.206;5.114;2023-02-18T13:51:43;12.48;;;4.60;;
64885;SDS011;51514;52.206;5.114;2023-02-18T13:56:49;7.97;;;3.78;;
64885;SDS011;51514;52.206;5.114;2023-02-18T13:59:22;10.02;;;4.15;;
64885;SDS011;51514;52.206;5.114;2023-02-18T14:01:55;10.85;;;3.30;;
64885;SDS011;51514;52.206;5.114;2023-02-18T14:04:52;13.90;;;3.58;;
64885;SDS011;51514;52.206;5.114;2023-02-18T14:12:37;10.57;;;3.28;;
64885;SDS011;51514;52.206;5.114;2023-02-18T14:17:42;9.35;;;3.65;;
64885;SDS011;51514;52.206;5.114;2023-02-18T14:22:43;11.77;;;3.00;;
64885;SDS011;51514;52.206;5.114;2023-02-18T14:27:36;12.75;;;3.45;;
64885;SDS011;51514;52.206;5.114;2023-02-18T14:32:48;10.60;;;3.72;;
64885;SDS011;51514;52.206;5.114;2023-02-18T14:35:26;12.02;;;3.90;;
64885;SDS011;51514;52.206;5.114;2023-02-18T14:41:03;9.40;;;3.13;;
64885;SDS011;51514;52.206;5.114;2023-02-18T14:51:56;10.20;;;3.55;;
64885;SDS011;51514;52.206;5.114;2023-02-18T14:54:23;12.27;;;3.58;;
64885;SDS011;51514;52.206;5.114;2023-02-18T14:57:03;11.13;;;3.30;;
64885;SDS011;51514;52.206;5.114;2023-02-18T14:59:35;9.50;;;3.78;;
64885;SDS011;51514;52.206;5.114;2023-02-18T15:02:20;12.32;;;3.97;;
64885;SDS011;51514;52.206;5.114;2023-02-18T15:04:51;9.98;;;3.67;;
64885;SDS011;51514;52.206;5.114;2023-02-18T15:07:18;10.13;;;3.42;;
64885;SDS011;51514;52.206;5.114;2023-02-18T15:09:46;12.52;;;3.60;;
64885;SDS011;51514;52.206;5.114;2023-02-18T15:12:14;12.85;;;3.53;;
64885;SDS011;51514;52.206;5.114;2023-02-18T15:14:44;7.10;;;3.78;;
64885;SDS011;51514;52.206;5.114;2023-02-18T15:17:12;11.45;;;3.65;;
64885;SDS011;51514;52.206;5.114;2023-02-18T15:19:43;11.30;;;3.30;;
64885;SDS011;51514;52.206;5.114;2023-02-18T15:22:14;13.02;;;3.38;;
64885;SDS011;51514;52.206;5.114;2023-02-18T15:24:41;13.52;;;3.72;;
64885;SDS011;51514;52.206;5.114;2023-02-18T15:27:11;12.15;;;3.38;;
64885;SDS011;51514;52.206;5.114;2023-02-18T15:29:50;10.07;;;3.92;;
64885;SDS011;51514;52.206;5.114;2023-02-18T15:32:20;13.38;;;3.85;;
64885;SDS011;51514;52.206;5.114;2023-02-18T15:34:57;11.52;;;3.90;;
64885;SDS011;51514;52.206;5.114;2023-02-18T15:37:28;9.27;;;2.95;;
64885;SDS011;51514;52.206;5.114;2023-02-18T15:39:54;10.32;;;3.70;;
64885;SDS011;51514;52.206;5.114;2023-02-18T15:42:32;11.85;;;3.50;;
64885;SDS011;51514;52.206;5.114;2023-02-18T15:47:41;15.07;;;3.70;;
64885;SDS011;51514;52.206;5.114;2023-02-18T15:50:44;9.30;;;3.38;;
64885;SDS011;51514;52.206;5.114;2023-02-18T15:53:06;7.10;;;3.80;;
64885;SDS011;51514;52.206;5.114;2023-02-18T15:55:34;11.02;;;3.25;;
64885;SDS011;51514;52.206;5.114;2023-02-18T15:58:03;8.98;;;3.83;;
64885;SDS011;51514;52.206;5.114;2023-02-18T16:03:02;9.07;;;3.35;;
64885;SDS011;51514;52.206;5.114;2023-02-18T16:05:28;14.25;;;3.80;;
64885;SDS011;51514;52.206;5.114;2023-02-18T16:08:02;8.93;;;3.95;;
64885;SDS011;51514;52.206;5.114;2023-02-18T16:13:01;14.02;;;3.63;;
64885;SDS011;51514;52.206;5.114;2023-02-18T16:15:28;14.70;;;3.85;;
64885;SDS011;51514;52.206;5.114;2023-02-18T16:17:55;16.05;;;3.22;;
64885;SDS011;51514;52.206;5.114;2023-02-18T16:20:36;10.98;;;3.75;;
64885;SDS011;51514;52.206;5.114;2023-02-18T16:23:11;17.25;;;4.50;;
64885;SDS011;51514;52.206;5.114;2023-02-18T16:25:43;9.02;;;3.28;;
64885;SDS011;51514;52.206;5.114;2023-02-18T16:28:24;14.88;;;3.97;;
64885;SDS011;51514;52.206;5.114;2023-02-18T16:30:53;11.13;;;4.05;;
64885;SDS011;51514;52.206;5.114;2023-02-18T16:33:19;10.77;;;4.28;;
64885;SDS011;51514;52.206;5.114;2023-02-18T16:35:44;12.52;;;3.90;;
64885;SDS011;51514;52.206;5.114;2023-02-18T16:38:12;10.63;;;3.80;;
64885;SDS011;51514;52.206;5.114;2023-02-18T16:40:41;10.38;;;3.85;;
64885;SDS011;51514;52.206;5.114;2023-02-18T16:43:11;12.77;;;3.70;;
64885;SDS011;51514;52.206;5.114;2023-02-18T16:45:41;9.50;;;3.42;;
64885;SDS011;51514;52.206;5.114;2023-02-18T16:51:29;14.45;;;4.40;;
64885;SDS011;51514;52.206;5.114;2023-02-18T16:53:55;15.93;;;4.28;;
64885;SDS011;51514;52.206;5.114;2023-02-18T16:56:22;17.35;;;4.40;;
64885;SDS011;51514;52.206;5.114;2023-02-18T17:03:44;14.80;;;4.43;;
64885;SDS011;51514;52.206;5.114;2023-02-18T17:06:10;12.68;;;3.95;;
64885;SDS011;51514;52.206;5.114;2023-02-18T17:08:35;14.75;;;4.45;;
64885;SDS011;51514;52.206;5.114;2023-02-18T17:11:00;14.20;;;4.63;;
64885;SDS011;51514;52.206;5.114;2023-02-18T17:13:26;15.38;;;3.97;;
64885;SDS011;51514;52.206;5.114;2023-02-18T17:15:54;20.92;;;4.47;;